Jussara, Brazil
Current Conditions -  °F | °C
As of 11:00 PM on Sunday 23 Nov 2014 (Local Time) from SBPL Reporting Station
Clear Clear  
Wind Chill: 82°   Ceiling: Unl
Heat Index: 85°   Visibility: 6mi
Dew Point: 68°   Wind: 5mph
Humidity: 62%   Direction: 150°SSE
Pressure: 29.94"   Gusts: NA
Location:  11.05°S, 41.97°W
Report Text: SBPL 240200Z 15004KT CAVOK 28/20 Q1014
Loading
Personal Weather Stations






























Interactive Weather Map New forecast layout! Learn more

10-Day Weather Forecast

Advertisements
Track Severe Weather on mobile